sensor_id;sensor_type;location;lat;lon;timestamp;P1;durP1;ratioP1;P2;durP2;ratioP2
73515;SDS011;61763;51.416;5.442;2023-04-03T00:00:08;10.55;;;3.45;;
73515;SDS011;61763;51.416;5.442;2023-04-03T00:02:35;7.65;;;3.92;;
73515;SDS011;61763;51.416;5.442;2023-04-03T00:05:01;8.07;;;3.80;;
73515;SDS011;61763;51.416;5.442;2023-04-03T00:07:26;10.55;;;4.22;;
73515;SDS011;61763;51.416;5.442;2023-04-03T00:09:51;14.35;;;4.20;;
73515;SDS011;61763;51.416;5.442;2023-04-03T00:12:17;11.93;;;3.53;;
73515;SDS011;61763;51.416;5.442;2023-04-03T00:14:42;7.47;;;3.60;;
73515;SDS011;61763;51.416;5.442;2023-04-03T00:17:08;8.60;;;3.28;;
73515;SDS011;61763;51.416;5.442;2023-04-03T00:19:35;7.38;;;3.55;;
73515;SDS011;61763;51.416;5.442;2023-04-03T00:22:00;12.98;;;3.78;;
73515;SDS011;61763;51.416;5.442;2023-04-03T00:24:26;9.23;;;4.28;;
73515;SDS011;61763;51.416;5.442;2023-04-03T00:26:52;12.30;;;3.85;;
73515;SDS011;61763;51.416;5.442;2023-04-03T00:29:18;10.50;;;4.18;;
73515;SDS011;61763;51.416;5.442;2023-04-03T00:31:43;10.07;;;4.15;;
73515;SDS011;61763;51.416;5.442;2023-04-03T00:34:08;9.50;;;3.75;;
73515;SDS011;61763;51.416;5.442;2023-04-03T00:36:34;7.00;;;3.33;;
73515;SDS011;61763;51.416;5.442;2023-04-03T00:38:59;7.72;;;3.75;;
73515;SDS011;61763;51.416;5.442;2023-04-03T00:41:25;9.35;;;3.80;;
73515;SDS011;61763;51.416;5.442;2023-04-03T00:43:51;6.93;;;3.58;;
73515;SDS011;61763;51.416;5.442;2023-04-03T00:46:16;8.93;;;3.28;;
73515;SDS011;61763;51.416;5.442;2023-04-03T00:48:45;7.60;;;3.00;;
73515;SDS011;61763;51.416;5.442;2023-04-03T00:51:16;7.88;;;3.40;;
73515;SDS011;61763;51.416;5.442;2023-04-03T00:53:55;11.20;;;4.15;;
73515;SDS011;61763;51.416;5.442;2023-04-03T00:56:26;7.00;;;3.03;;
73515;SDS011;61763;51.416;5.442;2023-04-03T00:59:03;10.05;;;3.35;;
73515;SDS011;61763;51.416;5.442;2023-04-03T01:01:34;9.25;;;3.75;;
73515;SDS011;61763;51.416;5.442;2023-04-03T01:04:01;11.20;;;4.32;;
73515;SDS011;61763;51.416;5.442;2023-04-03T01:06:29;9.30;;;4.07;;
73515;SDS011;61763;51.416;5.442;2023-04-03T01:08:59;10.73;;;4.10;;
73515;SDS011;61763;51.416;5.442;2023-04-03T01:11:25;9.90;;;3.78;;
73515;SDS011;61763;51.416;5.442;2023-04-03T01:13:51;7.75;;;3.20;;
73515;SDS011;61763;51.416;5.442;2023-04-03T01:16:17;8.98;;;3.78;;
73515;SDS011;61763;51.416;5.442;2023-04-03T01:18:43;9.98;;;4.40;;
73515;SDS011;61763;51.416;5.442;2023-04-03T01:21:30;8.15;;;3.80;;
73515;SDS011;61763;51.416;5.442;2023-04-03T01:26:50;9.40;;;3.97;;
73515;SDS011;61763;51.416;5.442;2023-04-03T01:29:16;8.60;;;3.47;;
73515;SDS011;61763;51.416;5.442;2023-04-03T01:31:55;12.10;;;5.45;;
73515;SDS011;61763;51.416;5.442;2023-04-03T01:34:23;12.00;;;4.95;;
73515;SDS011;61763;51.416;5.442;2023-04-03T01:36:49;12.63;;;5.00;;
73515;SDS011;61763;51.416;5.442;2023-04-03T01:39:15;18.10;;;6.28;;
73515;SDS011;61763;51.416;5.442;2023-04-03T01:41:41;11.18;;;4.15;;
73515;SDS011;61763;51.416;5.442;2023-04-03T01:44:07;15.05;;;6.38;;
73515;SDS011;61763;51.416;5.442;2023-04-03T01:46:33;16.20;;;5.32;;
73515;SDS011;61763;51.416;5.442;2023-04-03T01:48:59;13.48;;;5.38;;
73515;SDS011;61763;51.416;5.442;2023-04-03T01:51:24;13.70;;;5.35;;
73515;SDS011;61763;51.416;5.442;2023-04-03T01:53:50;10.70;;;4.95;;
73515;SDS011;61763;51.416;5.442;2023-04-03T01:56:16;10.73;;;4.22;;
73515;SDS011;61763;51.416;5.442;2023-04-03T01:58:43;10.90;;;4.43;;
73515;SDS011;61763;51.416;5.442;2023-04-03T02:01:08;12.95;;;5.70;;
73515;SDS011;61763;51.416;5.442;2023-04-03T02:03:34;17.20;;;5.97;;
73515;SDS011;61763;51.416;5.442;2023-04-03T02:05:59;13.85;;;4.70;;
73515;SDS011;61763;51.416;5.442;2023-04-03T02:08:25;12.88;;;5.13;;
73515;SDS011;61763;51.416;5.442;2023-04-03T02:10:50;12.88;;;5.13;;
73515;SDS011;61763;51.416;5.442;2023-04-03T02:13:17;10.90;;;5.47;;
73515;SDS011;61763;51.416;5.442;2023-04-03T02:15:42;13.13;;;6.10;;
73515;SDS011;61763;51.416;5.442;2023-04-03T02:18:08;10.70;;;5.18;;
73515;SDS011;61763;51.416;5.442;2023-04-03T02:20:34;14.13;;;4.72;;
73515;SDS011;61763;51.416;5.442;2023-04-03T02:23:00;14.27;;;5.53;;
73515;SDS011;61763;51.416;5.442;2023-04-03T02:25:26;15.63;;;5.57;;
73515;SDS011;61763;51.416;5.442;2023-04-03T02:27:51;12.32;;;5.22;;
73515;SDS011;61763;51.416;5.442;2023-04-03T02:30:17;11.48;;;5.63;;
73515;SDS011;61763;51.416;5.442;2023-04-03T02:32:42;17.38;;;6.90;;
73515;SDS011;61763;51.416;5.442;2023-04-03T02:35:08;18.27;;;4.90;;
73515;SDS011;61763;51.416;5.442;2023-04-03T02:37:34;11.43;;;5.22;;
73515;SDS011;61763;51.416;5.442;2023-04-03T02:40:00;10.90;;;5.38;;
73515;SDS011;61763;51.416;5.442;2023-04-03T02:42:26;17.95;;;6.78;;
73515;SDS011;61763;51.416;5.442;2023-04-03T02:44:51;11.25;;;5.63;;
73515;SDS011;61763;51.416;5.442;2023-04-03T02:47:17;13.23;;;5.18;;
73515;SDS011;61763;51.416;5.442;2023-04-03T02:49:42;9.50;;;4.20;;
73515;SDS011;61763;51.416;5.442;2023-04-03T02:52:10;10.10;;;3.85;;
73515;SDS011;61763;51.416;5.442;2023-04-03T02:54:37;9.10;;;3.72;;
73515;SDS011;61763;51.416;5.442;2023-04-03T02:57:02;8.35;;;4.10;;
73515;SDS011;61763;51.416;5.442;2023-04-03T02:59:27;8.88;;;4.28;;
73515;SDS011;61763;51.416;5.442;2023-04-03T03:01:53;10.27;;;3.85;;
73515;SDS011;61763;51.416;5.442;2023-04-03T03:04:18;5.53;;;3.05;;
73515;SDS011;61763;51.416;5.442;2023-04-03T03:06:44;6.20;;;3.20;;
73515;SDS011;61763;51.416;5.442;2023-04-03T03:09:10;5.93;;;2.70;;
73515;SDS011;61763;51.416;5.442;2023-04-03T03:11:38;6.60;;;2.58;;
73515;SDS011;61763;51.416;5.442;2023-04-03T03:14:03;5.25;;;2.83;;
73515;SDS011;61763;51.416;5.442;2023-04-03T03:16:29;8.10;;;2.70;;
73515;SDS011;61763;51.416;5.442;2023-04-03T03:18:56;8.10;;;3.22;;
73515;SDS011;61763;51.416;5.442;2023-04-03T03:21:21;6.90;;;3.10;;
73515;SDS011;61763;51.416;5.442;2023-04-03T03:23:48;7.93;;;3.25;;
73515;SDS011;61763;51.416;5.442;2023-04-03T03:26:14;6.68;;;2.83;;
73515;SDS011;61763;51.416;5.442;2023-04-03T03:28:40;5.30;;;2.42;;
73515;SDS011;61763;51.416;5.442;2023-04-03T03:31:05;9.63;;;2.72;;
73515;SDS011;61763;51.416;5.442;2023-04-03T03:33:32;6.00;;;3.00;;
73515;SDS011;61763;51.416;5.442;2023-04-03T03:35:57;8.27;;;3.53;;
73515;SDS011;61763;51.416;5.442;2023-04-03T03:38:23;5.88;;;2.20;;
73515;SDS011;61763;51.416;5.442;2023-04-03T03:40:49;5.20;;;2.83;;
73515;SDS011;61763;51.416;5.442;2023-04-03T03:43:16;9.15;;;2.90;;
73515;SDS011;61763;51.416;5.442;2023-04-03T03:45:42;6.55;;;3.30;;
73515;SDS011;61763;51.416;5.442;2023-04-03T03:48:07;8.77;;;2.58;;
73515;SDS011;61763;51.416;5.442;2023-04-03T03:50:34;8.27;;;2.90;;
73515;SDS011;61763;51.416;5.442;2023-04-03T03:52:59;6.22;;;2.63;;
73515;SDS011;61763;51.416;5.442;2023-04-03T03:55:25;6.22;;;2.95;;
73515;SDS011;61763;51.416;5.442;2023-04-03T03:57:50;5.72;;;2.67;;
73515;SDS011;61763;51.416;5.442;2023-04-03T04:00:16;7.07;;;3.63;;
73515;SDS011;61763;51.416;5.442;2023-04-03T04:02:42;5.15;;;2.40;;
73515;SDS011;61763;51.416;5.442;2023-04-03T04:05:08;5.47;;;2.42;;
73515;SDS011;61763;51.416;5.442;2023-04-03T04:07:35;6.25;;;2.35;;
73515;SDS011;61763;51.416;5.442;2023-04-03T04:10:00;6.15;;;2.70;;
73515;SDS011;61763;51.416;5.442;2023-04-03T04:12:26;9.27;;;2.75;;
73515;SDS011;61763;51.416;5.442;2023-04-03T04:14:51;6.72;;;2.50;;
73515;SDS011;61763;51.416;5.442;2023-04-03T04:17:16;8.00;;;2.40;;
73515;SDS011;61763;51.416;5.442;2023-04-03T04:19:42;11.07;;;2.70;;
73515;SDS011;61763;51.416;5.442;2023-04-03T04:22:07;8.82;;;2.60;;
73515;SDS011;61763;51.416;5.442;2023-04-03T04:24:32;3.88;;;1.85;;
73515;SDS011;61763;51.416;5.442;2023-04-03T04:26:58;3.90;;;2.17;;
73515;SDS011;61763;51.416;5.442;2023-04-03T04:29:24;9.27;;;2.30;;
73515;SDS011;61763;51.416;5.442;2023-04-03T04:31:49;4.47;;;1.20;;
73515;SDS011;61763;51.416;5.442;2023-04-03T04:34:16;6.03;;;1.45;;
73515;SDS011;61763;51.416;5.442;2023-04-03T04:36:41;4.20;;;1.60;;
73515;SDS011;61763;51.416;5.442;2023-04-03T04:39:07;9.15;;;1.63;;
73515;SDS011;61763;51.416;5.442;2023-04-03T04:41:33;3.97;;;1.55;;
73515;SDS011;61763;51.416;5.442;2023-04-03T04:43:59;3.83;;;1.60;;
73515;SDS011;61763;51.416;5.442;2023-04-03T04:46:25;5.95;;;1.63;;
73515;SDS011;61763;51.416;5.442;2023-04-03T04:48:50;3.85;;;1.67;;
73515;SDS011;61763;51.416;5.442;2023-04-03T04:51:16;3.58;;;1.25;;
73515;SDS011;61763;51.416;5.442;2023-04-03T04:53:41;1.05;;;0.50;;
73515;SDS011;61763;51.416;5.442;2023-04-03T04:56:07;4.75;;;1.48;;
73515;SDS011;61763;51.416;5.442;2023-04-03T04:58:33;6.63;;;1.52;;
73515;SDS011;61763;51.416;5.442;2023-04-03T05:00:59;4.20;;;1.50;;
73515;SDS011;61763;51.416;5.442;2023-04-03T05:03:26;9.23;;;1.60;;
73515;SDS011;61763;51.416;5.442;2023-04-03T05:05:54;8.00;;;2.03;;
73515;SDS011;61763;51.416;5.442;2023-04-03T05:08:20;3.28;;;0.98;;
73515;SDS011;61763;51.416;5.442;2023-04-03T05:10:46;5.07;;;1.05;;
73515;SDS011;61763;51.416;5.442;2023-04-03T05:13:11;3.13;;;1.40;;
73515;SDS011;61763;51.416;5.442;2023-04-03T05:15:37;5.88;;;1.00;;
73515;SDS011;61763;51.416;5.442;2023-04-03T05:18:03;3.75;;;0.98;;
73515;SDS011;61763;51.416;5.442;2023-04-03T05:20:28;3.38;;;1.38;;
73515;SDS011;61763;51.416;5.442;2023-04-03T05:22:54;4.50;;;1.35;;
73515;SDS011;61763;51.416;5.442;2023-04-03T05:25:19;3.15;;;1.42;;
73515;SDS011;61763;51.416;5.442;2023-04-03T05:27:45;4.07;;;1.27;;
73515;SDS011;61763;51.416;5.442;2023-04-03T05:30:10;2.50;;;0.80;;
73515;SDS011;61763;51.416;5.442;2023-04-03T05:32:36;3.95;;;0.95;;
73515;SDS011;61763;51.416;5.442;2023-04-03T05:35:01;6.28;;;1.17;;
73515;SDS011;61763;51.416;5.442;2023-04-03T05:37:27;3.28;;;0.68;;
73515;SDS011;61763;51.416;5.442;2023-04-03T05:39:53;3.08;;;1.17;;
73515;SDS011;61763;51.416;5.442;2023-04-03T05:42:18;5.18;;;1.00;;
73515;SDS011;61763;51.416;5.442;2023-04-03T05:44:44;4.03;;;0.90;;
73515;SDS011;61763;51.416;5.442;2023-04-03T05:47:12;2.20;;;0.55;;
73515;SDS011;61763;51.416;5.442;2023-04-03T05:49:37;5.00;;;0.80;;
73515;SDS011;61763;51.416;5.442;2023-04-03T05:52:06;4.50;;;0.88;;
73515;SDS011;61763;51.416;5.442;2023-04-03T05:54:41;5.80;;;1.98;;
73515;SDS011;61763;51.416;5.442;2023-04-03T05:57:08;3.42;;;1.17;;
73515;SDS011;61763;51.416;5.442;2023-04-03T05:59:33;1.85;;;0.50;;
73515;SDS011;61763;51.416;5.442;2023-04-03T06:01:58;2.65;;;0.65;;
73515;SDS011;61763;51.416;5.442;2023-04-03T06:04:24;4.50;;;0.88;;
73515;SDS011;61763;51.416;5.442;2023-04-03T06:06:50;2.47;;;0.75;;
73515;SDS011;61763;51.416;5.442;2023-04-03T06:09:21;4.50;;;0.85;;
73515;SDS011;61763;51.416;5.442;2023-04-03T06:11:47;3.67;;;1.02;;
73515;SDS011;61763;51.416;5.442;2023-04-03T06:14:14;7.07;;;1.02;;
73515;SDS011;61763;51.416;5.442;2023-04-03T06:16:40;2.03;;;0.52;;
73515;SDS011;61763;51.416;5.442;2023-04-03T06:19:06;3.78;;;1.35;;
73515;SDS011;61763;51.416;5.442;2023-04-03T06:21:33;2.65;;;0.77;;
73515;SDS011;61763;51.416;5.442;2023-04-03T06:23:59;6.00;;;0.65;;
73515;SDS011;61763;51.416;5.442;2023-04-03T06:26:24;6.40;;;0.63;;
73515;SDS011;61763;51.416;5.442;2023-04-03T06:28:50;2.33;;;0.73;;
73515;SDS011;61763;51.416;5.442;2023-04-03T06:31:15;2.13;;;0.65;;
73515;SDS011;61763;51.416;5.442;2023-04-03T06:33:41;6.65;;;0.90;;
73515;SDS011;61763;51.416;5.442;2023-04-03T06:36:07;4.15;;;0.57;;
73515;SDS011;61763;51.416;5.442;2023-04-03T06:43:27;0.32;;;0.08;;
73515;SDS011;61763;51.416;5.442;2023-04-03T06:45:52;2.85;;;0.68;;
73515;SDS011;61763;51.416;5.442;2023-04-03T06:48:19;2.85;;;0.80;;
73515;SDS011;61763;51.416;5.442;2023-04-03T06:50:45;1.70;;;0.30;;
73515;SDS011;61763;51.416;5.442;2023-04-03T06:53:11;3.95;;;0.73;;
73515;SDS011;61763;51.416;5.442;2023-04-03T06:55:37;4.55;;;0.70;;
73515;SDS011;61763;51.416;5.442;2023-04-03T06:58:03;3.97;;;0.45;;
73515;SDS011;61763;51.416;5.442;2023-04-03T07:00:29;3.08;;;0.60;;
73515;SDS011;61763;51.416;5.442;2023-04-03T07:02:55;1.88;;;0.40;;
73515;SDS011;61763;51.416;5.442;2023-04-03T07:05:22;7.35;;;0.73;;
73515;SDS011;61763;51.416;5.442;2023-04-03T07:07:49;5.70;;;1.52;;
73515;SDS011;61763;51.416;5.442;2023-04-03T07:10:16;3.33;;;0.40;;
73515;SDS011;61763;51.416;5.442;2023-04-03T07:12:43;6.80;;;0.88;;
73515;SDS011;61763;51.416;5.442;2023-04-03T07:15:08;4.40;;;0.40;;
73515;SDS011;61763;51.416;5.442;2023-04-03T07:17:34;1.77;;;0.45;;
73515;SDS011;61763;51.416;5.442;2023-04-03T07:20:01;1.90;;;0.57;;
73515;SDS011;61763;51.416;5.442;2023-04-03T07:22:28;4.25;;;0.38;;
73515;SDS011;61763;51.416;5.442;2023-04-03T07:24:53;4.00;;;0.75;;
73515;SDS011;61763;51.416;5.442;2023-04-03T07:27:18;2.78;;;0.77;;
73515;SDS011;61763;51.416;5.442;2023-04-03T07:29:44;3.67;;;0.32;;
73515;SDS011;61763;51.416;5.442;2023-04-03T07:32:10;2.05;;;0.52;;
73515;SDS011;61763;51.416;5.442;2023-04-03T07:34:36;1.58;;;0.47;;
73515;SDS011;61763;51.416;5.442;2023-04-03T07:37:02;4.75;;;0.60;;
73515;SDS011;61763;51.416;5.442;2023-04-03T07:39:27;5.88;;;0.55;;
73515;SDS011;61763;51.416;5.442;2023-04-03T07:41:53;3.50;;;0.88;;
73515;SDS011;61763;51.416;5.442;2023-04-03T07:44:21;3.63;;;0.57;;
73515;SDS011;61763;51.416;5.442;2023-04-03T07:46:46;3.95;;;0.55;;
73515;SDS011;61763;51.416;5.442;2023-04-03T07:49:13;2.17;;;0.52;;
73515;SDS011;61763;51.416;5.442;2023-04-03T07:51:39;4.32;;;0.75;;
73515;SDS011;61763;51.416;5.442;2023-04-03T07:54:04;4.07;;;0.73;;
73515;SDS011;61763;51.416;5.442;2023-04-03T07:56:30;1.33;;;0.43;;
73515;SDS011;61763;51.416;5.442;2023-04-03T07:58:56;5.22;;;0.63;;
73515;SDS011;61763;51.416;5.442;2023-04-03T08:01:22;3.50;;;0.40;;
73515;SDS011;61763;51.416;5.442;2023-04-03T08:03:47;2.38;;;0.75;;
73515;SDS011;61763;51.416;5.442;2023-04-03T08:06:12;2.45;;;0.65;;
73515;SDS011;61763;51.416;5.442;2023-04-03T08:08:40;4.13;;;0.88;;
73515;SDS011;61763;51.416;5.442;2023-04-03T08:11:05;1.67;;;0.52;;
73515;SDS011;61763;51.416;5.442;2023-04-03T08:13:31;1.67;;;0.38;;
73515;SDS011;61763;51.416;5.442;2023-04-03T08:15:57;4.65;;;0.98;;
73515;SDS011;61763;51.416;5.442;2023-04-03T08:18:24;1.95;;;0.43;;
73515;SDS011;61763;51.416;5.442;2023-04-03T08:20:51;2.35;;;0.38;;
73515;SDS011;61763;51.416;5.442;2023-04-03T08:23:17;2.47;;;0.63;;
73515;SDS011;61763;51.416;5.442;2023-04-03T08:25:43;4.18;;;0.50;;
73515;SDS011;61763;51.416;5.442;2023-04-03T08:28:10;3.50;;;0.52;;
73515;SDS011;61763;51.416;5.442;2023-04-03T08:30:38;3.80;;;0.55;;
73515;SDS011;61763;51.416;5.442;2023-04-03T08:33:04;2.83;;;0.73;;
73515;SDS011;61763;51.416;5.442;2023-04-03T08:35:31;3.55;;;0.77;;
73515;SDS011;61763;51.416;5.442;2023-04-03T08:37:56;2.22;;;0.30;;
73515;SDS011;61763;51.416;5.442;2023-04-03T08:40:22;2.85;;;0.50;;
73515;SDS011;61763;51.416;5.442;2023-04-03T08:48:20;5.18;;;0.68;;
73515;SDS011;61763;51.416;5.442;2023-04-03T08:50:56;3.85;;;0.55;;
73515;SDS011;61763;51.416;5.442;2023-04-03T08:53:25;2.40;;;0.45;;
73515;SDS011;61763;51.416;5.442;2023-04-03T08:55:56;5.53;;;0.47;;
73515;SDS011;61763;51.416;5.442;2023-04-03T08:58:26;3.92;;;0.30;;
73515;SDS011;61763;51.416;5.442;2023-04-03T09:00:59;0.88;;;0.20;;
73515;SDS011;61763;51.416;5.442;2023-04-03T09:03:29;1.95;;;0.28;;
73515;SDS011;61763;51.416;5.442;2023-04-03T09:06:16;1.15;;;0.20;;
73515;SDS011;61763;51.416;5.442;2023-04-03T09:08:47;6.97;;;0.70;;
73515;SDS011;61763;51.416;5.442;2023-04-03T09:11:25;1.58;;;0.22;;
73515;SDS011;61763;51.416;5.442;2023-04-03T09:16:31;2.97;;;0.20;;
73515;SDS011;61763;51.416;5.442;2023-04-03T09:25:00;1.85;;;0.30;;
73515;SDS011;61763;51.416;5.442;2023-04-03T09:27:47;0.75;;;0.10;;
73515;SDS011;61763;51.416;5.442;2023-04-03T09:30:14;0.17;;;0.00;;
73515;SDS011;61763;51.416;5.442;2023-04-03T09:32:41;1.00;;;0.10;;
73515;SDS011;61763;51.416;5.442;2023-04-03T09:35:42;1.77;;;0.20;;
73515;SDS011;61763;51.416;5.442;2023-04-03T09:40:41;2.60;;;0.50;;
73515;SDS011;61763;51.416;5.442;2023-04-03T09:45:42;0.68;;;0.22;;
73515;SDS011;61763;51.416;5.442;2023-04-03T09:48:13;3.42;;;0.25;;
73515;SDS011;61763;51.416;5.442;2023-04-03T09:56:03;0.70;;;0.20;;
73515;SDS011;61763;51.416;5.442;2023-04-03T09:58:48;1.20;;;0.05;;
73515;SDS011;61763;51.416;5.442;2023-04-03T10:01:35;2.22;;;0.35;;
73515;SDS011;61763;51.416;5.442;2023-04-03T10:04:08;1.63;;;0.10;;
73515;SDS011;61763;51.416;5.442;2023-04-03T10:06:41;0.57;;;0.05;;
73515;SDS011;61763;51.416;5.442;2023-04-03T10:12:03;2.47;;;0.20;;
73515;SDS011;61763;51.416;5.442;2023-04-03T10:14:53;1.95;;;0.20;;
73515;SDS011;61763;51.416;5.442;2023-04-03T10:22:59;0.77;;;0.22;;
73515;SDS011;61763;51.416;5.442;2023-04-03T10:25:32;0.65;;;0.20;;
73515;SDS011;61763;51.416;5.442;2023-04-03T10:28:09;1.98;;;0.15;;
73515;SDS011;61763;51.416;5.442;2023-04-03T10:36:42;2.40;;;0.10;;
73515;SDS011;61763;51.416;5.442;2023-04-03T10:42:25;1.15;;;0.47;;
73515;SDS011;61763;51.416;5.442;2023-04-03T10:50:27;1.55;;;0.30;;
73515;SDS011;61763;51.416;5.442;2023-04-03T10:58:04;3.35;;;0.13;;
73515;SDS011;61763;51.416;5.442;2023-04-03T11:00:42;1.70;;;0.10;;
73515;SDS011;61763;51.416;5.442;2023-04-03T11:05:51;0.80;;;0.50;;
73515;SDS011;61763;51.416;5.442;2023-04-03T11:11:13;0.98;;;0.13;;
73515;SDS011;61763;51.416;5.442;2023-04-03T11:16:47;0.95;;;0.52;;
73515;SDS011;61763;51.416;5.442;2023-04-03T11:19:20;0.63;;;0.20;;
73515;SDS011;61763;51.416;5.442;2023-04-03T11:22:09;1.73;;;0.50;;
73515;SDS011;61763;51.416;5.442;2023-04-03T11:24:36;0.95;;;0.20;;
73515;SDS011;61763;51.416;5.442;2023-04-03T11:27:08;0.85;;;0.10;;
73515;SDS011;61763;51.416;5.442;2023-04-03T11:29:41;1.60;;;0.20;;
73515;SDS011;61763;51.416;5.442;2023-04-03T11:32:20;1.83;;;0.38;;
73515;SDS011;61763;51.416;5.442;2023-04-03T11:35:09;2.17;;;0.40;;
73515;SDS011;61763;51.416;5.442;2023-04-03T11:37:39;0.47;;;0.10;;
73515;SDS011;61763;51.416;5.442;2023-04-03T11:42:42;0.68;;;0.10;;
73515;SDS011;61763;51.416;5.442;2023-04-03T11:47:53;1.25;;;0.10;;
73515;SDS011;61763;51.416;5.442;2023-04-03T11:50:41;1.55;;;0.10;;
73515;SDS011;61763;51.416;5.442;2023-04-03T11:55:43;0.90;;;0.22;;
73515;SDS011;61763;51.416;5.442;2023-04-03T11:58:17;1.23;;;0.20;;
73515;SDS011;61763;51.416;5.442;2023-04-03T12:16:19;3.20;;;0.20;;
73515;SDS011;61763;51.416;5.442;2023-04-03T12:22:04;1.02;;;0.22;;
73515;SDS011;61763;51.416;5.442;2023-04-03T12:26:38;0.80;;;0.13;;
73515;SDS011;61763;51.416;5.442;2023-04-03T12:29:20;0.57;;;0.10;;
73515;SDS011;61763;51.416;5.442;2023-04-03T12:45:52;1.70;;;0.30;;
73515;SDS011;61763;51.416;5.442;2023-04-03T12:51:09;0.73;;;0.17;;
73515;SDS011;61763;51.416;5.442;2023-04-03T12:53:45;0.55;;;0.13;;
73515;SDS011;61763;51.416;5.442;2023-04-03T12:56:27;0.70;;;0.10;;
73515;SDS011;61763;51.416;5.442;2023-04-03T12:58:55;1.00;;;0.13;;
73515;SDS011;61763;51.416;5.442;2023-04-03T13:01:38;1.30;;;0.38;;
73515;SDS011;61763;51.416;5.442;2023-04-03T13:04:03;1.67;;;0.38;;
73515;SDS011;61763;51.416;5.442;2023-04-03T13:06:47;1.30;;;0.30;;
73515;SDS011;61763;51.416;5.442;2023-04-03T13:11:51;2.45;;;0.22;;
73515;SDS011;61763;51.416;5.442;2023-04-03T13:14:22;2.03;;;0.20;;
73515;SDS011;61763;51.416;5.442;2023-04-03T13:17:00;1.58;;;0.13;;
73515;SDS011;61763;51.416;5.442;2023-04-03T13:19:32;2.20;;;0.20;;
73515;SDS011;61763;51.416;5.442;2023-04-03T13:24:49;0.80;;;0.40;;
73515;SDS011;61763;51.416;5.442;2023-04-03T13:27:16;1.00;;;0.13;;
73515;SDS011;61763;51.416;5.442;2023-04-03T13:29:42;0.90;;;0.35;;
73515;SDS011;61763;51.416;5.442;2023-04-03T13:32:14;2.63;;;0.30;;
73515;SDS011;61763;51.416;5.442;2023-04-03T13:34:46;0.80;;;0.10;;
73515;SDS011;61763;51.416;5.442;2023-04-03T13:37:23;1.27;;;0.22;;
73515;SDS011;61763;51.416;5.442;2023-04-03T13:42:38;3.00;;;0.57;;
73515;SDS011;61763;51.416;5.442;2023-04-03T13:45:09;2.78;;;0.60;;
73515;SDS011;61763;51.416;5.442;2023-04-03T13:48:09;2.13;;;0.40;;
73515;SDS011;61763;51.416;5.442;2023-04-03T13:50:49;2.38;;;0.28;;
73515;SDS011;61763;51.416;5.442;2023-04-03T13:53:29;2.03;;;0.38;;
73515;SDS011;61763;51.416;5.442;2023-04-03T14:01:23;3.42;;;0.20;;
73515;SDS011;61763;51.416;5.442;2023-04-03T14:06:22;1.45;;;0.30;;
73515;SDS011;61763;51.416;5.442;2023-04-03T14:08:48;2.78;;;0.20;;
73515;SDS011;61763;51.416;5.442;2023-04-03T14:11:15;2.67;;;0.47;;
73515;SDS011;61763;51.416;5.442;2023-04-03T14:13:44;4.20;;;0.43;;
73515;SDS011;61763;51.416;5.442;2023-04-03T14:16:15;3.65;;;0.52;;
73515;SDS011;61763;51.416;5.442;2023-04-03T14:18:48;0.77;;;0.32;;
73515;SDS011;61763;51.416;5.442;2023-04-03T14:21:15;1.90;;;0.60;;
73515;SDS011;61763;51.416;5.442;2023-04-03T14:23:42;1.08;;;0.32;;
73515;SDS011;61763;51.416;5.442;2023-04-03T14:26:14;3.53;;;0.20;;
73515;SDS011;61763;51.416;5.442;2023-04-03T14:28:42;2.58;;;0.47;;
73515;SDS011;61763;51.416;5.442;2023-04-03T14:31:10;2.75;;;0.45;;
73515;SDS011;61763;51.416;5.442;2023-04-03T14:33:39;3.75;;;0.60;;
73515;SDS011;61763;51.416;5.442;2023-04-03T14:36:15;0.70;;;0.10;;
73515;SDS011;61763;51.416;5.442;2023-04-03T14:38:50;1.25;;;0.50;;
73515;SDS011;61763;51.416;5.442;2023-04-03T14:41:18;1.00;;;0.32;;
73515;SDS011;61763;51.416;5.442;2023-04-03T14:43:46;1.35;;;0.20;;
73515;SDS011;61763;51.416;5.442;2023-04-03T14:46:13;4.43;;;0.88;;
73515;SDS011;61763;51.416;5.442;2023-04-03T14:48:44;2.08;;;0.40;;
73515;SDS011;61763;51.416;5.442;2023-04-03T14:51:11;0.93;;;0.25;;
73515;SDS011;61763;51.416;5.442;2023-04-03T14:53:40;2.63;;;0.50;;
73515;SDS011;61763;51.416;5.442;2023-04-03T14:56:14;2.85;;;0.40;;
73515;SDS011;61763;51.416;5.442;2023-04-03T14:58:43;2.85;;;0.75;;
73515;SDS011;61763;51.416;5.442;2023-04-03T15:01:12;2.72;;;0.30;;
73515;SDS011;61763;51.416;5.442;2023-04-03T15:03:39;1.40;;;0.20;;
73515;SDS011;61763;51.416;5.442;2023-04-03T15:06:05;3.03;;;0.60;;
73515;SDS011;61763;51.416;5.442;2023-04-03T15:08:31;3.17;;;0.65;;
73515;SDS011;61763;51.416;5.442;2023-04-03T15:10:57;1.90;;;0.43;;
73515;SDS011;61763;51.416;5.442;2023-04-03T15:13:23;1.40;;;0.25;;
73515;SDS011;61763;51.416;5.442;2023-04-03T15:15:50;2.55;;;0.52;;
73515;SDS011;61763;51.416;5.442;2023-04-03T15:18:18;2.13;;;0.28;;
73515;SDS011;61763;51.416;5.442;2023-04-03T15:20:46;2.17;;;0.28;;
73515;SDS011;61763;51.416;5.442;2023-04-03T15:23:13;1.38;;;0.20;;
73515;SDS011;61763;51.416;5.442;2023-04-03T15:25:41;1.55;;;0.60;;
73515;SDS011;61763;51.416;5.442;2023-04-03T15:30:47;3.92;;;0.40;;
73515;SDS011;61763;51.416;5.442;2023-04-03T15:33:13;2.05;;;0.38;;
73515;SDS011;61763;51.416;5.442;2023-04-03T15:35:40;1.58;;;0.55;;
73515;SDS011;61763;51.416;5.442;2023-04-03T15:38:06;2.22;;;0.82;;
73515;SDS011;61763;51.416;5.442;2023-04-03T15:40:31;2.97;;;0.77;;
73515;SDS011;61763;51.416;5.442;2023-04-03T15:42:57;2.35;;;0.30;;
73515;SDS011;61763;51.416;5.442;2023-04-03T15:45:22;2.75;;;0.43;;
73515;SDS011;61763;51.416;5.442;2023-04-03T15:47:48;2.72;;;0.25;;
73515;SDS011;61763;51.416;5.442;2023-04-03T15:50:13;1.52;;;0.32;;
73515;SDS011;61763;51.416;5.442;2023-04-03T15:52:39;0.98;;;0.25;;
73515;SDS011;61763;51.416;5.442;2023-04-03T15:55:05;2.75;;;0.55;;
73515;SDS011;61763;51.416;5.442;2023-04-03T15:57:31;2.42;;;1.00;;
73515;SDS011;61763;51.416;5.442;2023-04-03T15:59:56;3.85;;;0.77;;
73515;SDS011;61763;51.416;5.442;2023-04-03T16:02:21;2.72;;;0.52;;
73515;SDS011;61763;51.416;5.442;2023-04-03T16:04:48;2.83;;;0.45;;
73515;SDS011;61763;51.416;5.442;2023-04-03T16:07:15;2.28;;;0.43;;
73515;SDS011;61763;51.416;5.442;2023-04-03T16:09:40;1.25;;;0.60;;
73515;SDS011;61763;51.416;5.442;2023-04-03T16:12:06;2.38;;;0.55;;
73515;SDS011;61763;51.416;5.442;2023-04-03T16:14:31;1.75;;;0.32;;
73515;SDS011;61763;51.416;5.442;2023-04-03T16:16:57;0.40;;;0.13;;
73515;SDS011;61763;51.416;5.442;2023-04-03T16:19:27;1.67;;;0.30;;
73515;SDS011;61763;51.416;5.442;2023-04-03T16:21:54;2.25;;;0.38;;
73515;SDS011;61763;51.416;5.442;2023-04-03T16:24:21;2.08;;;0.17;;
73515;SDS011;61763;51.416;5.442;2023-04-03T16:26:47;0.93;;;0.22;;
73515;SDS011;61763;51.416;5.442;2023-04-03T16:29:12;2.75;;;0.30;;
73515;SDS011;61763;51.416;5.442;2023-04-03T16:31:37;1.65;;;0.52;;
73515;SDS011;61763;51.416;5.442;2023-04-03T16:34:03;3.03;;;0.63;;
73515;SDS011;61763;51.416;5.442;2023-04-03T16:36:30;3.75;;;0.20;;
73515;SDS011;61763;51.416;5.442;2023-04-03T16:38:55;1.90;;;0.22;;
73515;SDS011;61763;51.416;5.442;2023-04-03T16:41:20;1.10;;;0.22;;
73515;SDS011;61763;51.416;5.442;2023-04-03T16:43:46;1.40;;;0.20;;
73515;SDS011;61763;51.416;5.442;2023-04-03T16:46:11;1.63;;;0.73;;
73515;SDS011;61763;51.416;5.442;2023-04-03T16:48:37;4.32;;;0.60;;
73515;SDS011;61763;51.416;5.442;2023-04-03T16:51:02;3.67;;;0.28;;
73515;SDS011;61763;51.416;5.442;2023-04-03T16:53:28;5.60;;;0.47;;
73515;SDS011;61763;51.416;5.442;2023-04-03T16:55:56;0.52;;;0.13;;
73515;SDS011;61763;51.416;5.442;2023-04-03T16:58:23;1.25;;;0.30;;
73515;SDS011;61763;51.416;5.442;2023-04-03T17:00:48;2.67;;;0.60;;
73515;SDS011;61763;51.416;5.442;2023-04-03T17:03:14;1.17;;;0.15;;